Cumberland Heights, Illinois
Current Conditions -  °F | °C
As of 4:55 PM on Tuesday 27 Jan 2015 (Local Time) from KFWC Reporting Station
Overcast Overcast  
Wind Chill: 31°   Ceiling: 3400
Heat Index: 36°   Visibility: 10mi
Dew Point: 30°   Wind: 6mph
Humidity: 81%   Direction: 340°NNW
Pressure: 30.21"   Gusts: NA
Location:  38.3669°N, 88.3516°W
Report Text: KFWC 272255Z AUTO 34005KT 10SM SCT019 OVC034 02/M01 A3021 RMK AO1 T00201010
Loading
Personal Weather Stations






























Interactive Weather Map New forecast layout! Learn more

10-Day Weather Forecast

Advertisements
Track Severe Weather on mobile